createdAt,value
2019-04-21T00:00:54.250Z,14.00
2019-04-21T00:03:26.048Z,14.00
2019-04-21T00:06:09.415Z,14.00
2019-04-21T00:08:41.799Z,14.10
2019-04-21T00:11:20.629Z,13.90
2019-04-21T00:13:38.812Z,14.00
2019-04-21T00:16:00.252Z,14.00
2019-04-21T00:18:47.998Z,13.90
2019-04-21T00:21:18.318Z,13.90
2019-04-21T00:24:01.620Z,13.90
2019-04-21T00:26:33.534Z,13.80
2019-04-21T00:29:09.725Z,13.80
2019-04-21T00:31:36.679Z,13.70
2019-04-21T00:33:50.106Z,13.60
2019-04-21T00:36:27.380Z,13.60
2019-04-21T00:39:26.529Z,13.80
2019-04-21T00:41:43.928Z,13.70
2019-04-21T00:44:08.671Z,13.80
2019-04-21T00:46:45.214Z,13.60
2019-04-21T00:49:16.945Z,13.40
2019-04-21T00:52:25.141Z,13.30
2019-04-21T00:54:50.101Z,13.40
2019-04-21T00:57:19.610Z,13.50
2019-04-21T00:59:46.466Z,13.40
2019-04-21T01:02:16.873Z,13.40
2019-04-21T01:04:49.654Z,13.20
2019-04-21T01:07:21.990Z,13.00
2019-04-21T01:09:45.045Z,13.10
2019-04-21T01:12:28.275Z,13.20
2019-04-21T01:15:07.425Z,13.10
2019-04-21T01:17:29.058Z,13.00
2019-04-21T01:19:56.037Z,12.90
2019-04-21T01:22:10.176Z,12.70
2019-04-21T01:24:43.846Z,12.90
2019-04-21T01:27:22.425Z,13.00
2019-04-21T01:30:05.676Z,13.00
2019-04-21T01:32:34.391Z,12.90
2019-04-21T01:35:11.102Z,12.90
2019-04-21T01:37:44.053Z,12.90
2019-04-21T01:40:16.867Z,12.90
2019-04-21T01:42:43.612Z,13.00
2019-04-21T01:45:09.904Z,12.80
2019-04-21T01:47:40.502Z,12.80
2019-04-21T01:50:05.700Z,12.70
2019-04-21T01:52:51.485Z,12.70
2019-04-21T01:55:30.836Z,12.60
2019-04-21T01:58:09.723Z,12.60
2019-04-21T02:00:45.588Z,12.50
2019-04-21T02:03:40.659Z,12.30
2019-04-21T02:05:59.660Z,12.20
2019-04-21T02:08:21.962Z,12.30
2019-04-21T02:11:03.378Z,12.20
2019-04-21T02:13:23.142Z,12.20
2019-04-21T02:16:02.154Z,12.10
2019-04-21T02:18:28.770Z,12.00
2019-04-21T02:20:55.305Z,12.00
2019-04-21T02:23:41.198Z,12.10
2019-04-21T02:26:03.867Z,12.10
2019-04-21T02:28:42.431Z,12.20
2019-04-21T02:31:22.763Z,12.20
2019-04-21T02:33:56.202Z,12.20
2019-04-21T02:36:32.787Z,12.10
2019-04-21T02:38:55.972Z,12.10
2019-04-21T02:41:24.941Z,12.00
2019-04-21T02:44:00.633Z,12.10
2019-04-21T02:46:35.818Z,11.90
2019-04-21T02:49:06.272Z,11.90
2019-04-21T02:51:33.693Z,11.80
2019-04-21T02:54:37.337Z,11.90
2019-04-21T02:56:33.809Z,12.00
2019-04-21T02:59:30.482Z,11.90
2019-04-21T03:02:27.153Z,11.70
2019-04-21T03:04:42.602Z,11.70
2019-04-21T03:12:17.928Z,11.50
2019-04-21T03:15:08.062Z,11.50
2019-04-21T03:22:32.251Z,11.70
2019-04-21T03:30:21.324Z,11.30
2019-04-21T03:33:13.944Z,11.20
2019-04-21T03:35:54.322Z,11.20
2019-04-21T03:37:37.205Z,11.40
2019-04-21T03:40:16.698Z,11.30
2019-04-21T03:42:53.042Z,11.30
2019-04-21T03:45:25.107Z,11.30
2019-04-21T03:47:50.171Z,11.30
2019-04-21T03:50:22.657Z,11.40
2019-04-21T03:52:53.297Z,11.30
2019-04-21T03:58:23.973Z,14.20
2019-04-21T04:11:12.001Z,18.70
2019-04-21T04:13:48.035Z,18.90
2019-04-21T04:16:11.888Z,19.10
2019-04-21T04:23:49.368Z,19.40
2019-04-21T04:26:19.121Z,19.40
2019-04-21T04:31:28.777Z,19.60
2019-04-21T04:39:25.804Z,19.70
2019-04-21T04:42:08.107Z,19.70
2019-04-21T04:44:51.594Z,19.70
2019-04-21T04:47:05.549Z,19.80
2019-04-21T05:02:30.427Z,19.90
2019-04-21T05:04:46.288Z,19.90
2019-04-21T05:07:13.899Z,20.00
2019-04-21T05:09:48.032Z,20.00
2019-04-21T05:12:08.943Z,20.00
2019-04-21T05:14:48.245Z,20.10
2019-04-21T05:17:24.941Z,20.10
2019-04-21T05:24:37.519Z,20.10
2019-04-21T05:27:25.496Z,19.60
2019-04-21T05:30:09.373Z,20.00
2019-04-21T05:33:09.188Z,20.40
2019-04-21T05:36:09.392Z,20.50
2019-04-21T05:38:57.087Z,20.50
2019-04-21T05:41:31.375Z,20.40
2019-04-21T05:44:12.827Z,20.30
2019-04-21T05:46:52.318Z,20.30
2019-04-21T05:49:25.321Z,20.50
2019-04-21T05:51:58.324Z,20.60
2019-04-21T05:57:05.307Z,20.80
2019-04-21T05:59:40.021Z,20.90
2019-04-21T06:02:18.569Z,20.80
2019-04-21T06:07:18.794Z,20.60
2019-04-21T06:09:52.489Z,20.60
2019-04-21T06:12:16.124Z,20.70
2019-04-21T06:17:25.290Z,21.00
2019-04-21T06:20:07.856Z,21.10
2019-04-21T06:22:22.144Z,21.00
2019-04-21T06:25:21.687Z,20.90
2019-04-21T06:27:34.338Z,20.90
2019-04-21T06:30:00.194Z,20.90
2019-04-21T06:42:51.355Z,21.10
2019-04-21T06:45:25.767Z,21.10
2019-04-21T06:47:52.420Z,21.20
2019-04-21T06:50:22.734Z,21.20
2019-04-21T06:55:21.625Z,21.30
2019-04-21T06:57:51.716Z,21.40
2019-04-21T07:00:22.732Z,21.40
2019-04-21T07:03:01.204Z,21.50
2019-04-21T07:05:37.594Z,21.60
2019-04-21T07:08:14.863Z,21.70
2019-04-21T07:10:33.824Z,22.00
2019-04-21T07:12:58.309Z,22.20
2019-04-21T07:15:41.988Z,22.30
2019-04-21T07:18:08.991Z,22.40
2019-04-21T07:20:36.725Z,22.30
2019-04-21T07:23:09.312Z,22.30
2019-04-21T07:25:41.216Z,22.30
2019-04-21T07:28:12.849Z,22.40
2019-04-21T07:30:43.662Z,22.50
2019-04-21T07:33:44.726Z,22.50
2019-04-21T07:35:45.715Z,22.70
2019-04-21T07:38:16.667Z,22.90
2019-04-21T07:40:42.647Z,23.20
2019-04-21T07:43:16.654Z,23.40
2019-04-21T07:45:45.972Z,23.70
2019-04-21T07:48:24.701Z,23.80
2019-04-21T07:51:12.520Z,24.20
2019-04-21T07:53:53.335Z,24.60
2019-04-21T07:55:59.372Z,25.40
2019-04-21T07:58:53.418Z,25.80
2019-04-21T08:01:22.576Z,26.00
2019-04-21T08:03:49.064Z,26.10
2019-04-21T08:06:22.724Z,25.60
2019-04-21T08:08:52.901Z,25.10
2019-04-21T08:11:24.349Z,24.90
2019-04-21T08:13:55.047Z,24.90
2019-04-21T08:16:35.103Z,24.80
2019-04-21T08:18:59.777Z,24.70
2019-04-21T08:21:36.993Z,24.80
2019-04-21T08:24:00.165Z,24.70
2019-04-21T08:26:36.979Z,24.80
2019-04-21T08:29:13.241Z,24.90
2019-04-21T08:31:53.029Z,25.00
2019-04-21T08:34:13.885Z,25.10
2019-04-21T08:36:41.386Z,25.10
2019-04-21T08:39:12.985Z,25.10
2019-04-21T08:41:44.812Z,25.30
2019-04-21T08:44:24.347Z,25.40
2019-04-21T08:46:49.036Z,25.40
2019-04-21T08:49:15.536Z,25.40
2019-04-21T08:51:53.882Z,25.50
2019-04-21T08:54:23.543Z,25.10
2019-04-21T08:57:19.674Z,24.80
2019-04-21T09:00:05.138Z,25.00
2019-04-21T09:03:02.461Z,25.30
2019-04-21T09:05:04.676Z,25.50
2019-04-21T09:07:41.324Z,25.60
2019-04-21T09:10:10.796Z,25.80
2019-04-21T09:12:43.326Z,25.80
2019-04-21T09:15:14.402Z,25.80
2019-04-21T09:17:39.210Z,25.80
2019-04-21T09:20:17.322Z,25.70
2019-04-21T09:22:47.865Z,25.50
2019-04-21T09:25:19.699Z,25.50
2019-04-21T09:27:48.919Z,25.70
2019-04-21T09:30:06.542Z,25.80
2019-04-21T09:32:37.074Z,25.90
2019-04-21T09:35:11.273Z,26.00
2019-04-21T09:37:49.535Z,26.00
2019-04-21T09:40:13.500Z,26.00
2019-04-21T09:42:53.097Z,25.90
2019-04-21T09:45:15.792Z,25.80
2019-04-21T09:47:55.674Z,25.80
2019-04-21T09:50:17.578Z,26.00
2019-04-21T09:52:54.761Z,25.90
2019-04-21T09:55:22.542Z,25.90
2019-04-21T09:57:55.703Z,25.70
2019-04-21T10:00:26.603Z,25.80
2019-04-21T10:03:00.606Z,25.80
2019-04-21T10:05:27.329Z,25.70
2019-04-21T10:07:57.488Z,25.60
2019-04-21T10:10:27.609Z,25.70
2019-04-21T10:12:57.721Z,25.60
2019-04-21T10:15:28.300Z,25.70
2019-04-21T10:18:02.618Z,25.70
2019-04-21T10:20:32.929Z,25.70
2019-04-21T10:23:02.955Z,25.70
2019-04-21T10:25:32.832Z,25.60
2019-04-21T10:28:03.317Z,25.80
2019-04-21T10:30:33.445Z,25.80
2019-04-21T10:33:04.017Z,25.70
2019-04-21T10:35:35.148Z,25.70
2019-04-21T10:38:16.992Z,25.70
2019-04-21T10:40:37.324Z,25.70
2019-04-21T10:43:10.035Z,25.80
2019-04-21T10:45:39.159Z,25.60
2019-04-21T10:48:10.675Z,25.70
2019-04-21T10:50:41.152Z,25.60
2019-04-21T10:53:16.590Z,25.60
2019-04-21T10:56:01.586Z,25.60
2019-04-21T10:58:40.379Z,25.40
2019-04-21T11:01:31.356Z,25.40
2019-04-21T11:04:32.371Z,25.40
2019-04-21T11:07:06.683Z,25.50
2019-04-21T11:09:29.879Z,25.50
2019-04-21T11:12:00.029Z,25.70
2019-04-21T11:14:29.748Z,25.40
2019-04-21T11:17:00.526Z,25.30
2019-04-21T11:19:30.748Z,25.40
2019-04-21T11:22:01.024Z,25.40
2019-04-21T11:24:31.381Z,25.30
2019-04-21T11:27:01.858Z,25.30
2019-04-21T11:29:33.100Z,25.20
2019-04-21T11:32:03.124Z,25.30
2019-04-21T11:34:33.462Z,25.20
2019-04-21T11:37:06.051Z,25.30
2019-04-21T11:39:45.839Z,25.30
2019-04-21T11:42:17.618Z,25.30
2019-04-21T11:44:47.426Z,25.20
2019-04-21T11:47:24.663Z,25.10
2019-04-21T11:49:54.952Z,25.20
2019-04-21T11:52:25.074Z,25.20
2019-04-21T11:54:55.187Z,25.10
2019-04-21T11:57:30.428Z,25.10
2019-04-21T11:59:57.517Z,25.10
2019-04-21T12:02:27.648Z,25.10
2019-04-21T12:04:57.527Z,25.10
2019-04-21T12:07:29.306Z,25.20
2019-04-21T12:09:59.694Z,25.10
2019-04-21T12:12:29.632Z,25.10
2019-04-21T12:14:59.916Z,25.10
2019-04-21T12:17:30.058Z,25.00
2019-04-21T12:20:01.030Z,25.00
2019-04-21T12:22:33.958Z,24.90
2019-04-21T12:25:07.062Z,24.90
2019-04-21T12:27:38.028Z,24.90
2019-04-21T12:30:09.439Z,25.00
2019-04-21T12:32:56.097Z,25.00
2019-04-21T12:35:28.002Z,24.90
2019-04-21T12:37:58.519Z,25.00
2019-04-21T12:40:28.535Z,25.00
2019-04-21T12:42:58.809Z,25.10
2019-04-21T12:45:28.671Z,25.10
2019-04-21T12:47:59.955Z,25.10
2019-04-21T12:50:30.119Z,25.20
2019-04-21T12:53:00.004Z,25.10
2019-04-21T12:55:36.637Z,25.00
2019-04-21T12:58:03.483Z,25.00
2019-04-21T13:00:33.476Z,25.00
2019-04-21T13:03:03.637Z,25.00
2019-04-21T13:05:33.927Z,25.10
2019-04-21T13:08:03.901Z,25.10
2019-04-21T13:10:34.028Z,25.20
2019-04-21T13:13:03.999Z,25.10
2019-04-21T13:15:33.732Z,25.00
2019-04-21T13:18:04.635Z,25.00
2019-04-21T13:20:35.878Z,25.10
2019-04-21T13:23:06.044Z,25.10
2019-04-21T13:25:36.252Z,25.10
2019-04-21T13:28:06.968Z,25.10
2019-04-21T13:30:38.077Z,24.90
2019-04-21T13:33:09.146Z,24.90
2019-04-21T13:35:39.200Z,24.90
2019-04-21T13:38:20.034Z,24.80
2019-04-21T13:41:05.361Z,24.90
2019-04-21T13:43:23.266Z,24.90
2019-04-21T13:45:54.085Z,25.00
2019-04-21T13:48:24.397Z,25.00
2019-04-21T13:50:55.297Z,25.00
2019-04-21T13:53:25.233Z,25.00
2019-04-21T13:55:56.424Z,25.00
2019-04-21T13:58:26.442Z,25.00
2019-04-21T14:00:56.228Z,25.00
2019-04-21T14:03:26.751Z,25.00
2019-04-21T14:05:58.187Z,25.00
2019-04-21T14:08:47.169Z,25.00
2019-04-21T14:11:17.625Z,25.10
2019-04-21T14:13:48.587Z,25.10
2019-04-21T14:16:18.271Z,25.10
2019-04-21T14:18:47.935Z,25.10
2019-04-21T14:21:18.837Z,25.10
2019-04-21T14:23:52.133Z,25.10
2019-04-21T14:26:20.326Z,25.00
2019-04-21T14:28:51.251Z,25.10
2019-04-21T14:31:22.204Z,25.10
2019-04-21T14:33:52.137Z,25.20
2019-04-21T14:36:23.007Z,25.20
2019-04-21T14:38:54.422Z,25.20
2019-04-21T14:41:24.324Z,25.20
2019-04-21T14:43:55.120Z,25.30
2019-04-21T14:46:31.209Z,25.20
2019-04-21T14:49:13.142Z,25.20
2019-04-21T14:51:53.186Z,25.20
2019-04-21T14:54:40.406Z,25.20
2019-04-21T14:57:11.446Z,25.20
2019-04-21T14:59:42.718Z,25.20
2019-04-21T15:02:14.071Z,25.20
2019-04-21T15:04:43.972Z,25.20
2019-04-21T15:07:14.929Z,25.20
2019-04-21T15:09:46.365Z,25.20
2019-04-21T15:12:16.357Z,25.20
2019-04-21T15:14:47.579Z,25.20
2019-04-21T15:17:20.695Z,25.30
2019-04-21T15:19:56.084Z,25.20
2019-04-21T15:22:20.746Z,25.20
2019-04-21T15:24:52.022Z,25.30
2019-04-21T15:27:23.125Z,25.30
2019-04-21T15:29:53.087Z,25.30
2019-04-21T15:32:22.800Z,25.30
2019-04-21T15:34:52.523Z,25.30
2019-04-21T15:37:22.218Z,25.40
2019-04-21T15:39:53.069Z,25.40
2019-04-21T15:42:24.355Z,25.10
2019-04-21T15:44:54.636Z,24.90
2019-04-21T15:47:26.113Z,25.10
2019-04-21T15:50:02.999Z,25.10
2019-04-21T15:52:29.805Z,25.30
2019-04-21T15:55:05.995Z,25.20
2019-04-21T15:57:54.818Z,25.20
2019-04-21T16:00:36.096Z,25.20
2019-04-21T16:03:06.802Z,25.20
2019-04-21T16:05:37.124Z,25.20
2019-04-21T16:08:07.902Z,25.20
2019-04-21T16:10:52.630Z,25.20
2019-04-21T16:13:17.108Z,25.20
2019-04-21T16:15:48.340Z,25.30
2019-04-21T16:18:18.372Z,25.20
2019-04-21T16:20:48.284Z,25.10
2019-04-21T16:23:18.278Z,25.00
2019-04-21T16:25:48.742Z,25.10
2019-04-21T16:28:19.280Z,25.10
2019-04-21T16:30:49.095Z,25.10
2019-04-21T16:33:18.886Z,25.10
2019-04-21T16:35:49.555Z,25.20
2019-04-21T16:38:19.698Z,25.10
2019-04-21T16:40:56.391Z,25.10
2019-04-21T16:43:22.798Z,25.20
2019-04-21T16:45:52.947Z,25.20
2019-04-21T16:48:23.322Z,25.30
2019-04-21T16:50:53.330Z,25.30
2019-04-21T16:53:34.132Z,25.30
2019-04-21T16:56:13.023Z,25.40
2019-04-21T16:58:52.610Z,25.30
2019-04-21T17:01:27.640Z,25.20
2019-04-21T17:03:58.310Z,25.10
2019-04-21T17:06:29.403Z,25.10
2019-04-21T17:08:59.178Z,25.00
2019-04-21T17:11:31.528Z,25.00
2019-04-21T17:14:00.714Z,24.90
2019-04-21T17:17:09.945Z,24.90
2019-04-21T17:19:13.721Z,24.90
2019-04-21T17:21:34.223Z,24.90
2019-04-21T17:24:04.505Z,24.80
2019-04-21T17:26:37.436Z,24.80
2019-04-21T17:29:06.841Z,24.80
2019-04-21T17:31:37.164Z,24.80
2019-04-21T17:34:12.418Z,24.80
2019-04-21T17:36:39.259Z,24.70
2019-04-21T17:39:10.984Z,24.20
2019-04-21T17:41:55.997Z,24.30
2019-04-21T17:44:12.996Z,24.40
2019-04-21T17:46:50.015Z,24.50
2019-04-21T17:49:14.986Z,24.60
2019-04-21T17:52:11.431Z,24.60
2019-04-21T17:54:49.104Z,24.60
2019-04-21T17:57:37.961Z,24.60
2019-04-21T18:00:08.180Z,24.60
2019-04-21T18:02:41.683Z,24.70
2019-04-21T18:05:17.972Z,24.60
2019-04-21T18:07:46.766Z,24.60
2019-04-21T18:10:07.410Z,24.60
2019-04-21T18:12:35.950Z,24.40
2019-04-21T18:15:16.160Z,24.20
2019-04-21T18:17:27.107Z,24.20
2019-04-21T18:19:57.341Z,24.40
2019-04-21T18:22:54.706Z,24.20
2019-04-21T18:25:41.115Z,24.30
2019-04-21T18:27:58.725Z,24.50
2019-04-21T18:30:44.388Z,24.60
2019-04-21T18:33:23.544Z,24.50
2019-04-21T18:36:06.555Z,24.50
2019-04-21T18:39:10.038Z,24.50
2019-04-21T18:41:30.000Z,24.60
2019-04-21T18:44:30.305Z,24.50
2019-04-21T18:46:58.610Z,24.50
2019-04-21T18:49:24.957Z,24.50
2019-04-21T18:52:06.815Z,24.40
2019-04-21T18:54:46.109Z,24.40
2019-04-21T18:57:10.786Z,24.40
2019-04-21T18:59:36.100Z,24.30
2019-04-21T19:02:09.854Z,24.20
2019-04-21T19:04:37.577Z,24.30
2019-04-21T19:07:19.845Z,24.20
2019-04-21T19:10:14.373Z,24.10
2019-04-21T19:12:47.777Z,24.10
2019-04-21T19:15:02.595Z,24.00
2019-04-21T19:20:11.750Z,24.10
2019-04-21T19:22:38.423Z,24.10
2019-04-21T19:25:09.697Z,24.00
2019-04-21T19:27:38.304Z,24.10
2019-04-21T19:32:38.929Z,23.50
2019-04-21T19:34:59.399Z,22.10
2019-04-21T19:37:30.152Z,21.30
2019-04-21T19:40:11.886Z,20.70
2019-04-21T19:42:42.825Z,20.40
2019-04-21T19:45:19.142Z,20.30
2019-04-21T19:47:53.214Z,20.20
2019-04-21T19:50:30.964Z,20.10
2019-04-21T19:52:48.623Z,20.00
2019-04-21T19:55:12.064Z,19.90
2019-04-21T19:57:43.156Z,19.80
2019-04-21T20:00:14.064Z,19.60
2019-04-21T20:02:44.865Z,19.60
2019-04-21T20:05:24.177Z,19.60
2019-04-21T20:08:03.757Z,19.50
2019-04-21T20:10:39.525Z,19.40
2019-04-21T20:13:07.241Z,19.30
2019-04-21T20:15:41.636Z,19.30
2019-04-21T20:18:06.246Z,19.30
2019-04-21T20:20:24.867Z,19.20
2019-04-21T20:22:57.367Z,19.10
2019-04-21T20:25:28.711Z,19.10
2019-04-21T20:28:09.089Z,19.10
2019-04-21T20:30:49.003Z,19.00
2019-04-21T20:33:41.307Z,18.90
2019-04-21T20:38:16.128Z,18.70
2019-04-21T20:40:46.964Z,18.80
2019-04-21T20:43:28.513Z,18.70
2019-04-21T20:46:00.852Z,18.70
2019-04-21T20:48:20.026Z,18.80
2019-04-21T20:51:00.598Z,18.70
2019-04-21T20:53:32.884Z,18.70
2019-04-21T20:55:58.438Z,18.60
2019-04-21T20:58:34.815Z,18.70
2019-04-21T21:01:23.948Z,18.70
2019-04-21T21:03:46.076Z,18.60
2019-04-21T21:06:02.255Z,18.60
2019-04-21T21:08:40.311Z,18.60
2019-04-21T21:11:08.008Z,18.60
2019-04-21T21:13:44.387Z,18.60
2019-04-21T21:16:29.638Z,18.50
2019-04-21T21:19:11.203Z,18.40
2019-04-21T21:21:15.306Z,18.50
2019-04-21T21:23:51.280Z,18.40
2019-04-21T21:26:28.268Z,18.40
2019-04-21T21:28:45.962Z,18.30
2019-04-21T21:31:25.140Z,18.40
2019-04-21T21:36:27.380Z,18.30
2019-04-21T21:39:01.382Z,18.30
2019-04-21T21:41:22.344Z,18.20
2019-04-21T21:43:47.755Z,18.20
2019-04-21T21:46:39.011Z,18.10
2019-04-21T21:48:59.009Z,18.10
2019-04-21T21:51:33.062Z,18.10
2019-04-21T21:53:50.621Z,18.20
2019-04-21T21:56:20.653Z,18.10
2019-04-21T21:58:51.964Z,17.90
2019-04-21T22:01:31.842Z,17.80
2019-04-21T22:04:02.957Z,17.90
2019-04-21T22:06:34.538Z,17.90
2019-04-21T22:08:56.653Z,17.80
2019-04-21T22:11:26.503Z,17.80
2019-04-21T22:14:02.793Z,17.70
2019-04-21T22:16:38.857Z,17.60
2019-04-21T22:19:21.909Z,17.60
2019-04-21T22:21:47.731Z,17.50
2019-04-21T22:24:09.418Z,17.50
2019-04-21T22:26:34.793Z,17.50
2019-04-21T22:29:05.593Z,17.50
2019-04-21T22:31:38.914Z,17.50
2019-04-21T22:34:10.571Z,17.50
2019-04-21T22:36:48.711Z,17.40
2019-04-21T22:39:30.714Z,17.30
2019-04-21T22:41:46.601Z,17.30
2019-04-21T22:44:18.371Z,17.30
2019-04-21T22:46:58.416Z,17.30
2019-04-21T22:49:22.297Z,17.40
2019-04-21T22:51:53.853Z,17.30
2019-04-21T22:54:29.927Z,17.30
2019-04-21T22:57:04.758Z,17.20
2019-04-21T22:59:28.627Z,17.20
2019-04-21T23:01:59.521Z,17.20
2019-04-21T23:04:35.552Z,17.30
2019-04-21T23:07:07.014Z,17.20
2019-04-21T23:09:33.029Z,17.30
2019-04-21T23:12:03.618Z,17.30
2019-04-21T23:14:45.377Z,17.20
2019-04-21T23:17:29.280Z,17.20
2019-04-21T23:19:59.921Z,17.10
2019-04-21T23:22:29.283Z,17.00
2019-04-21T23:25:03.713Z,16.90
2019-04-21T23:27:26.342Z,16.80
2019-04-21T23:30:08.125Z,16.80
2019-04-21T23:32:30.407Z,16.80
2019-04-21T23:34:49.232Z,16.80
2019-04-21T23:37:23.267Z,16.70
2019-04-21T23:39:54.665Z,16.70
2019-04-21T23:42:30.516Z,16.60
2019-04-21T23:44:58.096Z,16.60
2019-04-21T23:47:35.580Z,16.60
2019-04-21T23:50:02.710Z,16.50
2019-04-21T23:52:27.962Z,16.50
2019-04-21T23:54:58.926Z,16.40
2019-04-21T23:57:35.866Z,16.40
